Time;durP1;ratioP1;P1;durP2;ratioP2;P2;SDS_P1;SDS_P2;PMS_P1;PMS_P2;Temp;Humidity;BMP_temperature;BMP_pressure;BME280_temperature;BME280_humidity;BME280_pressure;Samples;Min_cycle;Max_cycle;Signal;HPM_P1;HPM_P2
2023/04/02 00:02:25;;;;;;;;;13.00;10.25;20.20;41.40;;;;;;111412;1243;49381;-59
2023/04/02 00:05:33;;;;;;;;;17.50;11.00;20.20;41.20;;;;;;111362;1238;49601;-59
2023/04/02 00:08:02;;;;;;;;;12.00;10.00;20.20;41.50;;;;;;111194;1243;45423;-59
2023/04/02 00:10:38;;;;;;;;;14.00;11.00;20.20;41.30;;;;;;111296;1243;55359;-59
2023/04/02 00:13:10;;;;;;;;;12.75;11.75;20.20;41.40;;;;;;111504;1237;54987;-59
2023/04/02 00:15:40;;;;;;;;;11.75;10.75;20.20;41.20;;;;;;111398;1239;49871;-59
2023/04/02 00:18:10;;;;;;;;;13.75;12.00;20.20;41.40;;;;;;111300;1240;49120;-58
2023/04/02 00:20:40;;;;;;;;;13.00;11.00;20.10;41.20;;;;;;111402;1237;46002;-58
2023/04/02 00:23:12;;;;;;;;;11.00;9.75;20.10;41.20;;;;;;111207;1239;55680;-59
2023/04/02 00:25:44;;;;;;;;;15.00;11.00;20.10;41.40;;;;;;111382;1237;54081;-60
2023/04/02 00:28:13;;;;;;;;;12.75;11.00;20.10;41.20;;;;;;111424;1237;49664;-59
2023/04/02 00:30:58;;;;;;;;;10.75;9.75;20.10;41.20;;;;;;111315;1238;49624;-59
2023/04/02 00:33:27;;;;;;;;;13.00;10.25;20.10;41.20;;;;;;111178;1238;46595;-59
2023/04/02 00:35:55;;;;;;;;;12.75;11.75;20.10;41.20;;;;;;111420;1242;55781;-59
2023/04/02 00:38:31;;;;;;;;;13.00;11.75;20.10;41.20;;;;;;111377;1242;54140;-59
2023/04/02 00:41:03;;;;;;;;;12.00;10.25;20.10;41.20;;;;;;111356;1242;50067;-60
2023/04/02 00:43:34;;;;;;;;;12.75;11.50;20.10;41.20;;;;;;111324;1238;50346;-60
2023/04/02 00:46:09;;;;;;;;;12.67;10.00;20.10;41.20;;;;;;111375;1242;46489;-60
2023/04/02 00:49:07;;;;;;;;;12.00;10.50;20.10;41.20;;;;;;111348;1244;55333;-60
2023/04/02 00:51:45;;;;;;;;;11.67;9.67;20.10;41.20;;;;;;111009;1243;54698;-60
2023/04/02 00:54:16;;;;;;;;;13.00;11.50;20.10;41.10;;;;;;111423;1238;49299;-60
2023/04/02 00:56:48;;;;;;;;;12.75;11.75;20.10;41.10;;;;;;111293;1239;48759;-59
2023/04/02 00:59:29;;;;;;;;;11.00;10.00;20.10;41.10;;;;;;111465;1238;45288;-59
2023/04/02 01:02:25;;;;;;;;;14.50;12.00;20.10;41.10;;;;;;111448;1238;55494;-60
2023/04/02 01:05:14;;;;;;;;;12.00;10.00;20.10;41.10;;;;;;111377;1238;53300;-60
2023/04/02 01:07:57;;;;;;;;;11.25;9.75;20.10;41.10;;;;;;111271;1243;49591;-60
2023/04/02 01:10:52;;;;;;;;;12.67;11.00;20.10;41.10;;;;;;111285;1244;49418;-60
2023/04/02 01:13:39;;;;;;;;;12.00;10.33;20.10;41.10;;;;;;111377;1243;46213;-60
2023/04/02 01:16:28;;;;;;;;;12.33;9.00;20.10;41.10;;;;;;111405;1238;55469;-60
2023/04/02 01:19:12;;;;;;;;;14.00;11.00;20.10;40.70;;;;;;111369;1242;54076;-60
2023/04/02 01:21:58;;;;;;;;;14.00;11.00;20.10;41.20;;;;;;111294;1242;49284;-60
2023/04/02 01:24:30;;;;;;;;;11.50;10.00;20.10;41.20;;;;;;111412;1242;49215;-60
2023/04/02 01:26:59;;;;;;;;;11.75;9.75;20.10;41.20;;;;;;111283;1237;46191;-59
2023/04/02 01:29:38;;;;;;;;;14.00;11.00;20.00;41.20;;;;;;111553;1239;55319;-59
2023/04/02 01:32:08;;;;;;;;;13.75;11.75;20.00;41.40;;;;;;111278;1240;54279;-59
2023/04/02 01:34:36;;;;;;;;;12.00;11.00;20.10;41.20;;;;;;111361;1243;49740;-61
2023/04/02 01:37:13;;;;;;;;;10.75;9.75;20.00;41.20;;;;;;111511;1243;50176;-59
2023/04/02 01:40:07;;;;;;;;;12.00;10.00;20.00;41.20;;;;;;111369;1240;45417;-61
2023/04/02 01:42:58;;;;;;;;;13.25;11.75;20.00;41.20;;;;;;111366;1242;55553;-60
2023/04/02 01:45:25;;;;;;;;;11.50;9.75;20.00;41.40;;;;;;111375;1244;54456;-60
2023/04/02 01:47:52;;;;;;;;;14.00;12.00;20.00;41.20;;;;;;111246;1242;50092;-60
2023/04/02 01:50:31;;;;;;;;;13.67;10.33;20.00;41.30;;;;;;111353;1243;49903;-60
2023/04/02 01:53:11;;;;;;;;;11.25;10.00;20.00;40.70;;;;;;111318;1237;46210;-64
2023/04/02 01:55:42;;;;;;;;;11.00;10.00;20.00;41.20;;;;;;111234;1239;55344;-60
2023/04/02 01:58:11;;;;;;;;;10.00;8.75;20.00;41.50;;;;;;111472;1242;54181;-59
2023/04/02 02:00:47;;;;;;;;;12.25;10.00;20.00;41.30;;;;;;111522;1237;48983;-59
2023/04/02 02:03:14;;;;;;;;;13.33;10.00;20.00;41.30;;;;;;111457;1237;49026;-59
2023/04/02 02:05:42;;;;;;;;;10.75;9.50;20.00;41.30;;;;;;111236;1243;46307;-60
2023/04/02 02:08:20;;;;;;;;;10.67;9.00;20.00;41.30;;;;;;111404;1242;56686;-59
2023/04/02 02:10:48;;;;;;;;;12.00;10.00;20.00;41.30;;;;;;111453;1242;54221;-59
2023/04/02 02:13:15;;;;;;;;;10.33;9.00;20.00;41.30;;;;;;111478;1238;49847;-59
2023/04/02 02:15:42;;;;;;;;;10.75;8.75;20.00;41.20;;;;;;111445;1243;49975;-60
2023/04/02 02:18:10;;;;;;;;;11.25;10.00;20.00;41.30;;;;;;111393;1243;45907;-59
2023/04/02 02:20:38;;;;;;;;;13.00;12.00;20.00;41.30;;;;;;111404;1242;55746;-60
2023/04/02 02:23:06;;;;;;;;;11.00;9.75;20.00;41.30;;;;;;111294;1243;53414;-59
2023/04/02 02:25:34;;;;;;;;;11.25;10.25;20.00;41.30;;;;;;111179;1242;50090;-59
2023/04/02 02:28:32;;;;;;;;;12.00;11.00;20.00;41.30;;;;;;111444;1238;49499;-59
2023/04/02 02:31:26;;;;;;;;;13.00;11.25;20.00;41.60;;;;;;111512;1237;45547;-59
2023/04/02 02:33:59;;;;;;;;;9.75;8.00;20.00;41.30;;;;;;111375;1237;56696;-61
2023/04/02 02:36:49;;;;;;;;;11.00;10.00;20.00;41.20;;;;;;111420;1237;53247;-60
2023/04/02 02:39:29;;;;;;;;;13.00;11.50;20.00;41.40;;;;;;111201;1243;49243;-62
2023/04/02 02:42:00;;;;;;;;;11.25;9.25;20.00;41.20;;;;;;111216;1243;50038;-60
2023/04/02 02:44:35;;;;;;;;;11.67;10.00;20.00;41.10;;;;;;111432;1247;45189;-60
2023/04/02 02:47:05;;;;;;;;;12.75;8.75;20.00;41.20;;;;;;111189;1241;55304;-59
2023/04/02 02:49:36;;;;;;;;;11.50;10.00;20.00;41.20;;;;;;111399;1239;53409;-60
2023/04/02 02:52:16;;;;;;;;;11.75;10.00;20.00;41.20;;;;;;111411;1243;49312;-61
2023/04/02 02:54:46;;;;;;;;;10.75;8.25;20.00;41.20;;;;;;111401;1243;49514;-60
2023/04/02 02:57:18;;;;;;;;;11.00;9.75;20.00;41.20;;;;;;111386;1242;45988;-60
2023/04/02 02:59:46;;;;;;;;;9.75;8.75;20.00;41.30;;;;;;111213;1238;56264;-59
2023/04/02 03:02:14;;;;;;;;;12.50;9.00;20.00;41.30;;;;;;111347;1243;54434;-59
2023/04/02 03:04:46;;;;;;;;;11.50;10.00;20.00;41.30;;;;;;111405;1237;48573;-59
2023/04/02 03:07:15;;;;;;;;;11.00;10.00;19.90;41.20;;;;;;111396;1238;49171;-60
2023/04/02 03:10:00;;;;;;;;;11.25;9.75;19.90;41.20;;;;;;111399;1243;46784;-61
2023/04/02 03:12:51;;;;;;;;;11.75;10.00;19.90;41.30;;;;;;111215;1243;56065;-60
2023/04/02 03:15:32;;;;;;;;;12.00;9.25;19.90;41.20;;;;;;111251;1243;54524;-60
2023/04/02 03:18:06;;;;;;;;;12.50;10.00;19.90;41.20;;;;;;111393;1238;51142;-60
2023/04/02 03:20:42;;;;;;;;;10.00;8.33;19.90;41.30;;;;;;111266;1242;49655;-60
2023/04/02 03:23:32;;;;;;;;;10.00;9.00;19.90;41.30;;;;;;111190;1243;46979;-60
2023/04/02 03:26:22;;;;;;;;;9.75;8.50;19.90;41.20;;;;;;111426;1243;55138;-60
2023/04/02 03:29:02;;;;;;;;;14.50;11.00;19.90;41.20;;;;;;111416;1238;54988;-59
2023/04/02 03:31:36;;;;;;;;;13.75;11.00;19.90;41.30;;;;;;111366;1238;49688;-59
2023/04/02 03:34:12;;;;;;;;;12.25;10.75;19.90;41.20;;;;;;111269;1240;49655;-59
2023/04/02 03:37:10;;;;;;;;;12.00;10.25;19.90;41.40;;;;;;111398;1242;45586;-59
2023/04/02 03:39:36;;;;;;;;;11.00;9.25;19.90;41.20;;;;;;111354;1242;55652;-60
2023/04/02 03:42:24;;;;;;;;;10.75;9.00;19.90;41.40;;;;;;111400;1241;54849;-60
2023/04/02 03:45:06;;;;;;;;;12.00;10.00;19.90;41.20;;;;;;111238;1240;50080;-60
2023/04/02 03:47:37;;;;;;;;;11.25;10.00;19.90;41.20;;;;;;111467;1240;49424;-59
2023/04/02 03:50:26;;;;;;;;;11.00;10.00;19.90;41.20;;;;;;111377;1237;45192;-60
2023/04/02 03:52:53;;;;;;;;;11.00;10.00;19.90;41.20;;;;;;111390;1242;56283;-60
2023/04/02 03:55:20;;;;;;;;;11.00;9.00;19.90;41.20;;;;;;111462;1242;54124;-60
2023/04/02 03:57:50;;;;;;;;;11.00;10.00;19.90;41.30;;;;;;111435;1240;48866;-65
2023/04/02 04:00:31;;;;;;;;;11.00;9.25;19.90;41.40;;;;;;111392;1242;50102;-61
2023/04/02 04:03:08;;;;;;;;;11.00;9.00;19.90;41.20;;;;;;111494;1238;46692;-63
2023/04/02 04:05:38;;;;;;;;;12.00;10.00;19.90;41.20;;;;;;111303;1238;56761;-60
2023/04/02 04:08:11;;;;;;;;;10.00;9.00;19.90;41.20;;;;;;111309;1239;53452;-60
2023/04/02 04:10:39;;;;;;;;;11.00;9.00;19.90;41.40;;;;;;111367;1243;49254;-60
2023/04/02 04:13:12;;;;;;;;;11.67;9.67;19.90;41.10;;;;;;111483;1244;48944;-60
2023/04/02 04:15:56;;;;;;;;;10.00;9.00;19.90;41.10;;;;;;111400;1238;45929;-60
2023/04/02 04:18:36;;;;;;;;;11.00;9.67;19.90;41.10;;;;;;111363;1241;56390;-60
2023/04/02 04:21:29;;;;;;;;;13.00;11.00;19.90;41.10;;;;;;111329;1238;55324;-59
2023/04/02 04:24:03;;;;;;;;;12.00;9.50;19.90;41.00;;;;;;111337;1238;49120;-59
2023/04/02 04:26:40;;;;;;;;;13.25;11.75;19.90;41.00;;;;;;111208;1243;49866;-60
2023/04/02 04:29:44;;;;;;;;;13.00;10.00;19.90;41.00;;;;;;111327;1243;46107;-60
2023/04/02 04:32:31;;;;;;;;;10.25;9.00;19.90;41.00;;;;;;111402;1242;55316;-59
2023/04/02 04:35:23;;;;;;;;;11.00;9.00;19.90;41.00;;;;;;111202;1243;53775;-59
2023/04/02 04:37:57;;;;;;;;;11.75;10.00;19.90;41.00;;;;;;111334;1243;49570;-60
2023/04/02 04:40:30;;;;;;;;;11.50;10.00;19.90;41.10;;;;;;111312;1243;48804;-60
2023/04/02 04:43:03;;;;;;;;;12.00;11.00;19.90;41.30;;;;;;111489;1238;46239;-60
2023/04/02 04:45:39;;;;;;;;;13.25;10.75;19.90;41.40;;;;;;111290;1237;55106;-60
2023/04/02 04:48:19;;;;;;;;;11.00;10.00;19.90;41.20;;;;;;111471;1239;54232;-60
2023/04/02 04:50:46;;;;;;;;;10.25;9.00;19.90;41.20;;;;;;111298;1243;49730;-60
2023/04/02 04:53:16;;;;;;;;;12.33;11.00;19.90;41.00;;;;;;111381;1237;49000;-60
2023/04/02 04:55:44;;;;;;;;;10.00;9.00;19.90;41.00;;;;;;111480;1237;46218;-60
2023/04/02 04:58:21;;;;;;;;;10.75;9.75;19.90;41.00;;;;;;111405;1240;55242;-60
2023/04/02 05:01:06;;;;;;;;;10.75;9.25;19.90;41.10;;;;;;111156;1240;54705;-60
2023/04/02 05:03:50;;;;;;;;;11.00;9.25;19.90;41.10;;;;;;111274;1243;50433;-60
2023/04/02 05:06:22;;;;;;;;;11.00;10.00;19.90;41.10;;;;;;111346;1239;49126;-60
2023/04/02 05:08:52;;;;;;;;;13.75;11.00;19.90;41.10;;;;;;111439;1238;46197;-61
2023/04/02 05:11:31;;;;;;;;;11.00;9.75;19.90;41.10;;;;;;111509;1237;55811;-60
2023/04/02 05:14:02;;;;;;;;;11.00;10.00;19.90;41.10;;;;;;111490;1244;54371;-60
2023/04/02 05:16:35;;;;;;;;;11.00;10.00;19.80;41.00;;;;;;111329;1243;49032;-58
2023/04/02 05:19:11;;;;;;;;;12.00;9.00;19.80;41.20;;;;;;111372;1237;50321;-59
2023/04/02 05:21:56;;;;;;;;;11.00;10.00;19.80;41.00;;;;;;111273;1241;45443;-59
2023/04/02 05:24:42;;;;;;;;;10.00;9.00;19.90;41.30;;;;;;111317;1243;55122;-59
2023/04/02 05:27:23;;;;;;;;;11.00;9.00;19.80;41.00;;;;;;111349;1243;54114;-58
2023/04/02 05:29:57;;;;;;;;;12.25;11.00;19.80;41.10;;;;;;111149;1240;50592;-61
2023/04/02 05:32:31;;;;;;;;;11.50;9.50;19.80;41.10;;;;;;111392;1242;49259;-64
2023/04/02 05:34:58;;;;;;;;;11.00;10.00;19.90;41.20;;;;;;111181;1241;45481;-62
2023/04/02 05:37:28;;;;;;;;;11.75;10.00;19.90;41.90;;;;;;111351;1242;56316;-60
2023/04/02 05:39:57;;;;;;;;;13.50;9.75;19.90;41.90;;;;;;111308;1240;53624;-60
2023/04/02 05:42:28;;;;;;;;;11.50;9.25;19.90;41.70;;;;;;111452;1242;49390;-60
2023/04/02 05:45:07;;;;;;;;;13.33;10.00;19.90;41.10;;;;;;111356;1238;50139;-60
2023/04/02 05:47:39;;;;;;;;;12.00;10.00;19.90;41.50;;;;;;111228;1239;45593;-60
2023/04/02 05:50:07;;;;;;;;;11.00;9.75;19.90;41.50;;;;;;111355;1238;55744;-59
2023/04/02 05:52:42;;;;;;;;;12.00;9.75;19.90;41.50;;;;;;111420;1237;53636;-60
2023/04/02 05:55:15;;;;;;;;;13.00;10.00;19.90;41.40;;;;;;111451;1237;50401;-59
2023/04/02 05:57:58;;;;;;;;;12.50;11.00;19.90;41.40;;;;;;111333;1243;49479;-59
2023/04/02 06:01:02;;;;;;;;;12.75;9.75;19.90;41.40;;;;;;111207;1243;45466;-59
2023/04/02 06:03:50;;;;;;;;;12.00;10.75;19.90;41.70;;;;;;111249;1237;55823;-59
2023/04/02 06:06:24;;;;;;;;;12.75;11.00;20.00;41.50;;;;;;111189;1243;53220;-59
2023/04/02 06:08:59;;;;;;;;;11.00;8.75;19.90;41.40;;;;;;111238;1243;49129;-59
2023/04/02 06:11:30;;;;;;;;;11.75;10.25;19.90;41.50;;;;;;111245;1243;49169;-59
2023/04/02 06:13:58;;;;;;;;;12.00;10.50;20.00;41.50;;;;;;111207;1243;45593;-60
2023/04/02 06:16:29;;;;;;;;;14.00;10.50;20.00;41.50;;;;;;111463;1242;55106;-60
2023/04/02 06:18:56;;;;;;;;;15.00;13.50;20.00;44.70;;;;;;111532;1241;54724;-59
2023/04/02 06:21:24;;;;;;;;;15.00;13.50;20.10;49.30;;;;;;111175;1243;49752;-59
2023/04/02 06:23:55;;;;;;;;;15.00;12.00;20.20;49.20;;;;;;111246;1237;49102;-60
2023/04/02 06:26:31;;;;;;;;;14.00;12.75;20.30;48.70;;;;;;111419;1245;45605;-60
2023/04/02 06:29:13;;;;;;;;;16.00;13.00;20.30;47.80;;;;;;111282;1243;55723;-60
2023/04/02 06:31:44;;;;;;;;;15.00;12.00;20.40;47.60;;;;;;111269;1238;53946;-59
2023/04/02 06:34:17;;;;;;;;;18.00;13.00;20.40;46.90;;;;;;111342;1243;49115;-58
2023/04/02 06:36:45;;;;;;;;;13.75;12.25;20.40;46.60;;;;;;111507;1243;50173;-60
2023/04/02 06:39:21;;;;;;;;;20.50;14.25;20.40;46.30;;;;;;111507;1237;46981;-59
2023/04/02 06:42:06;;;;;;;;;14.75;12.00;20.40;46.10;;;;;;111433;1238;55651;-59
2023/04/02 06:44:35;;;;;;;;;19.33;14.00;20.40;46.00;;;;;;111428;1242;53648;-59
2023/04/02 06:47:09;;;;;;;;;12.75;11.75;20.40;45.60;;;;;;111309;1241;50548;-59
2023/04/02 06:49:43;;;;;;;;;16.67;12.67;20.40;45.40;;;;;;111353;1237;49659;-60
2023/04/02 06:52:16;;;;;;;;;12.67;11.00;20.40;45.20;;;;;;111315;1238;45881;-61
2023/04/02 06:54:43;;;;;;;;;16.33;13.00;20.40;45.20;;;;;;111233;1243;55444;-59
2023/04/02 06:57:12;;;;;;;;;15.75;14.50;20.40;44.70;;;;;;111330;1242;54399;-60
2023/04/02 06:59:38;;;;;;;;;12.75;11.50;20.40;44.70;;;;;;111377;1243;49127;-59
2023/04/02 07:02:33;;;;;;;;;15.00;14.00;20.40;44.80;;;;;;111196;1243;49320;-59
2023/04/02 07:05:04;;;;;;;;;16.75;12.00;20.40;44.50;;;;;;111269;1238;45713;-59
2023/04/02 07:07:31;;;;;;;;;18.25;11.75;20.40;44.30;;;;;;111344;1237;55931;-59
2023/04/02 07:09:58;;;;;;;;;17.25;11.25;20.50;44.20;;;;;;111476;1237;53555;-59
2023/04/02 07:12:25;;;;;;;;;17.67;13.33;20.50;44.00;;;;;;111409;1238;49171;-59
2023/04/02 07:14:52;;;;;;;;;17.00;13.00;20.50;43.90;;;;;;111307;1242;49722;-60
2023/04/02 07:17:20;;;;;;;;;15.75;13.00;20.50;43.90;;;;;;111265;1242;46489;-59
2023/04/02 07:19:48;;;;;;;;;16.50;13.50;20.50;43.90;;;;;;111202;1243;56532;-61
2023/04/02 07:22:16;;;;;;;;;13.00;12.00;20.40;43.80;;;;;;110602;1243;871071;-61
2023/04/02 07:24:44;;;;;;;;;13.00;11.50;20.50;43.80;;;;;;111310;1237;49975;-61
2023/04/02 07:27:13;;;;;;;;;14.00;12.00;20.50;43.70;;;;;;111110;1239;49657;-59
2023/04/02 07:29:43;;;;;;;;;13.67;11.33;20.50;43.80;;;;;;111384;1238;45375;-60
2023/04/02 07:32:12;;;;;;;;;13.00;11.75;20.50;44.20;;;;;;111402;1238;56064;-59
2023/04/02 07:34:40;;;;;;;;;15.00;12.25;20.50;43.80;;;;;;111350;1244;54014;-60
2023/04/02 07:37:10;;;;;;;;;15.00;13.00;20.50;43.70;;;;;;111350;1243;49523;-59
2023/04/02 07:39:37;;;;;;;;;16.75;13.25;20.50;43.60;;;;;;111260;1243;50178;-59
2023/04/02 07:42:04;;;;;;;;;19.00;13.00;20.60;48.20;;;;;;111455;1242;46479;-60
2023/04/02 07:44:31;;;;;;;;;21.25;16.00;20.70;50.30;;;;;;111355;1243;55727;-61
2023/04/02 07:46:58;;;;;;;;;20.25;18.00;20.80;50.60;;;;;;111259;1243;54012;-60
2023/04/02 07:49:25;;;;;;;;;16.75;15.50;20.90;50.80;;;;;;111201;1243;49763;-60
2023/04/02 07:51:52;;;;;;;;;17.00;14.00;21.00;50.70;;;;;;111486;1239;50127;-60
2023/04/02 07:54:19;;;;;;;;;18.75;16.50;21.10;50.20;;;;;;111406;1243;45889;-60
2023/04/02 07:56:46;;;;;;;;;16.00;14.25;21.20;50.00;;;;;;111270;1243;55540;-60
2023/04/02 07:59:13;;;;;;;;;16.25;14.00;21.40;50.00;;;;;;111195;1242;54010;-60
2023/04/02 08:01:41;;;;;;;;;20.00;17.00;21.40;49.70;;;;;;111466;1237;48838;-60
2023/04/02 08:04:20;;;;;;;;;16.00;13.00;21.60;49.70;;;;;;111222;1243;49540;-59
2023/04/02 08:06:48;;;;;;;;;14.50;13.00;21.70;49.90;;;;;;111251;1242;45399;-59
2023/04/02 08:09:15;;;;;;;;;16.00;13.75;21.70;49.40;;;;;;111105;1238;55011;-59
2023/04/02 08:11:43;;;;;;;;;17.00;14.67;21.80;49.20;;;;;;111320;1243;53967;-59
2023/04/02 08:14:10;;;;;;;;;16.67;13.00;21.90;49.20;;;;;;111300;1243;49817;-59
2023/04/02 08:16:51;;;;;;;;;16.50;13.50;22.00;49.10;;;;;;111343;1237;50114;-59
2023/04/02 08:19:18;;;;;;;;;18.25;14.75;22.00;49.70;;;;;;111156;1238;46078;-60
2023/04/02 08:21:49;;;;;;;;;15.50;14.25;22.10;49.20;;;;;;111297;1243;55769;-64
2023/04/02 08:24:20;;;;;;;;;17.25;15.75;22.20;49.70;;;;;;111435;1238;54582;-59
2023/04/02 08:26:49;;;;;;;;;20.50;17.50;22.20;50.60;;;;;;111381;1238;49692;-58
2023/04/02 08:29:16;;;;;;;;;29.50;21.75;22.30;49.40;;;;;;111247;1239;49561;-58
2023/04/02 08:31:42;;;;;;;;;30.00;22.25;22.30;49.10;;;;;;111334;1238;45435;-59
2023/04/02 08:34:09;;;;;;;;;27.25;21.00;22.30;48.70;;;;;;111444;1240;55200;-59
2023/04/02 08:36:38;;;;;;;;;30.00;21.75;22.40;48.50;;;;;;111327;1237;54305;-59
2023/04/02 08:39:10;;;;;;;;;30.75;23.50;22.40;48.30;;;;;;111208;1237;49347;-58
2023/04/02 08:41:46;;;;;;;;;23.67;18.00;22.40;48.10;;;;;;111382;1243;50230;-59
2023/04/02 08:44:18;;;;;;;;;29.33;23.00;22.40;47.80;;;;;;111375;1243;46249;-58
2023/04/02 08:47:01;;;;;;;;;23.25;19.00;22.50;47.80;;;;;;111448;1237;55354;-58
2023/04/02 08:49:35;;;;;;;;;23.00;20.00;22.50;47.60;;;;;;111317;1242;54958;-58
2023/04/02 08:52:02;;;;;;;;;23.25;21.50;22.50;47.50;;;;;;111229;1238;49667;-57
2023/04/02 08:54:32;;;;;;;;;31.67;22.33;22.60;47.40;;;;;;111234;1238;49388;-58
2023/04/02 08:57:18;;;;;;;;;17.75;15.75;22.60;47.30;;;;;;111388;1243;46102;-58
2023/04/02 08:59:46;;;;;;;;;21.67;18.33;22.60;47.20;;;;;;111378;1243;56267;-58
2023/04/02 09:02:31;;;;;;;;;22.67;19.00;22.60;47.10;;;;;;111511;1243;54436;-59
2023/04/02 09:05:00;;;;;;;;;25.75;20.50;22.70;47.00;;;;;;111283;1243;49068;-58
2023/04/02 09:07:27;;;;;;;;;22.50;17.50;22.70;47.00;;;;;;111367;1238;49538;-58
2023/04/02 09:09:56;;;;;;;;;22.33;18.00;22.70;46.50;;;;;;111357;1242;45485;-57
2023/04/02 09:12:29;;;;;;;;;25.00;21.25;22.70;47.00;;;;;;111458;1243;56094;-58
2023/04/02 09:15:19;;;;;;;;;26.00;19.25;22.70;46.70;;;;;;111486;1244;54713;-59
2023/04/02 09:17:46;;;;;;;;;23.50;20.00;22.70;46.80;;;;;;111278;1237;49883;-58
2023/04/02 09:20:20;;;;;;;;;20.50;18.75;22.80;46.60;;;;;;111351;1238;48786;-58
2023/04/02 09:22:53;;;;;;;;;23.75;18.75;22.80;46.70;;;;;;111555;1243;46869;-58
2023/04/02 09:25:30;;;;;;;;;18.00;14.50;22.80;46.40;;;;;;111182;1241;55576;-58
2023/04/02 09:28:00;;;;;;;;;20.67;17.00;22.80;46.30;;;;;;111447;1237;53728;-58
2023/04/02 09:30:30;;;;;;;;;24.00;18.00;22.80;46.40;;;;;;111319;1243;48975;-57
2023/04/02 09:33:06;;;;;;;;;24.00;18.33;22.80;46.20;;;;;;111286;1237;49310;-59
2023/04/02 09:35:54;;;;;;;;;23.00;16.00;22.90;46.40;;;;;;111544;1237;46017;-59
2023/04/02 09:38:30;;;;;;;;;21.00;17.75;22.90;46.20;;;;;;111263;1240;55845;-58
2023/04/02 09:40:57;;;;;;;;;18.50;16.00;22.80;46.30;;;;;;111354;1243;54871;-60
2023/04/02 09:43:33;;;;;;;;;19.75;17.75;22.90;46.00;;;;;;111452;1243;50457;-57
2023/04/02 09:46:06;;;;;;;;;17.00;14.00;22.90;46.00;;;;;;111292;1242;48968;-58
2023/04/02 09:48:38;;;;;;;;;20.75;19.50;22.90;46.00;;;;;;111368;1238;45173;-58
2023/04/02 09:51:12;;;;;;;;;16.67;15.00;22.90;47.40;;;;;;111315;1237;55101;-58
2023/04/02 09:53:47;;;;;;;;;20.00;17.00;22.90;47.30;;;;;;111376;1243;54804;-58
2023/04/02 09:56:21;;;;;;;;;20.75;16.75;22.90;47.20;;;;;;111259;1243;49167;-58
2023/04/02 09:59:04;;;;;;;;;21.50;17.50;23.00;46.90;;;;;;111064;1243;49829;-58
2023/04/02 10:01:34;;;;;;;;;20.50;17.75;23.00;46.90;;;;;;111351;1238;45615;-60
2023/04/02 10:04:03;;;;;;;;;20.67;16.33;23.00;47.50;;;;;;111467;1238;55297;-59
2023/04/02 10:06:32;;;;;;;;;19.67;16.67;23.00;47.60;;;;;;111451;1238;53999;-60
2023/04/02 10:09:28;;;;;;;;;19.00;16.75;23.00;46.80;;;;;;111122;1239;49416;-59
2023/04/02 10:11:56;;;;;;;;;20.50;16.75;23.00;46.30;;;;;;111303;1243;49652;-60
2023/04/02 10:14:28;;;;;;;;;25.00;19.00;23.10;47.90;;;;;;111368;1242;45547;-59
2023/04/02 10:17:19;;;;;;;;;19.75;16.00;23.10;47.90;;;;;;111153;1244;55854;-59
2023/04/02 10:19:50;;;;;;;;;20.25;15.75;23.10;47.70;;;;;;111123;1244;53721;-58
2023/04/02 10:22:21;;;;;;;;;46.50;29.50;23.10;47.50;;;;;;111406;1244;49802;-59
2023/04/02 10:24:49;;;;;;;;;43.00;31.00;23.10;49.90;;;;;;111364;1239;49892;-59
2023/04/02 10:27:51;;;;;;;;;33.00;26.00;23.10;50.70;;;;;;111317;1237;45630;-60
2023/04/02 10:30:27;;;;;;;;;42.75;31.25;23.10;49.70;;;;;;111332;1238;55188;-60
2023/04/02 10:33:02;;;;;;;;;37.50;27.75;23.10;50.00;;;;;;111269;1242;53893;-60
2023/04/02 10:35:38;;;;;;;;;36.75;26.00;23.10;49.50;;;;;;111240;1243;49647;-61
2023/04/02 10:38:24;;;;;;;;;43.50;30.00;23.10;49.30;;;;;;111296;1238;49127;-60
2023/04/02 10:40:57;;;;;;;;;48.50;29.00;23.00;48.60;;;;;;111395;1237;46955;-60
2023/04/02 10:43:30;;;;;;;;;41.75;31.00;23.00;48.80;;;;;;111386;1243;56008;-61
2023/04/02 10:46:16;;;;;;;;;42.50;29.75;23.00;48.60;;;;;;111234;1238;53823;-59
2023/04/02 10:48:49;;;;;;;;;35.00;27.50;22.90;48.40;;;;;;111038;1238;49503;-58
2023/04/02 10:51:52;;;;;;;;;34.33;23.00;22.90;48.20;;;;;;111382;1238;49153;-60
2023/04/02 10:54:39;;;;;;;;;35.25;25.25;22.90;48.00;;;;;;111077;1238;46066;-59
2023/04/02 10:57:15;;;;;;;;;34.00;25.50;22.90;47.90;;;;;;111172;1243;56104;-59
2023/04/02 10:59:46;;;;;;;;;36.75;25.50;22.80;47.60;;;;;;111188;1237;54903;-58
2023/04/02 11:02:42;;;;;;;;;37.75;29.25;22.80;47.40;;;;;;111167;1239;49269;-59
2023/04/02 11:05:18;;;;;;;;;36.67;27.33;22.80;47.70;;;;;;111249;1243;49026;-59
2023/04/02 11:08:21;;;;;;;;;32.25;25.00;22.80;47.00;;;;;;110998;1243;45909;-59
2023/04/02 11:10:55;;;;;;;;;27.67;22.00;22.80;47.20;;;;;;111306;1243;55364;-60
2023/04/02 11:13:29;;;;;;;;;34.33;25.00;22.80;46.80;;;;;;111253;1243;54951;-58
2023/04/02 11:15:56;;;;;;;;;32.50;23.00;22.80;46.70;;;;;;111391;1237;49391;-59
2023/04/02 11:18:26;;;;;;;;;34.50;23.50;22.80;46.70;;;;;;111368;1237;49153;-59
2023/04/02 11:20:59;;;;;;;;;38.00;27.75;22.80;46.70;;;;;;111265;1241;46845;-59
2023/04/02 11:23:28;;;;;;;;;36.00;26.25;22.80;46.50;;;;;;111271;1240;55365;-59
2023/04/02 11:26:31;;;;;;;;;36.33;27.67;22.70;46.40;;;;;;111179;1243;53685;-59
2023/04/02 11:29:19;;;;;;;;;34.50;23.25;22.70;46.30;;;;;;111243;1240;49485;-59
2023/04/02 11:31:47;;;;;;;;;34.25;25.00;22.70;46.50;;;;;;111256;1243;49489;-60
2023/04/02 11:34:35;;;;;;;;;36.00;24.33;22.80;46.50;;;;;;111359;1241;46285;-59
2023/04/02 11:37:10;;;;;;;;;37.25;26.50;22.70;46.00;;;;;;111397;1243;55491;-59
2023/04/02 11:40:09;;;;;;;;;36.00;27.00;22.80;46.10;;;;;;111178;1243;54425;-59
2023/04/02 11:42:39;;;;;;;;;32.00;23.50;22.80;45.80;;;;;;111407;1239;48967;-60
2023/04/02 11:45:22;;;;;;;;;32.25;23.50;22.80;45.70;;;;;;111334;1243;49892;-59
2023/04/02 11:47:58;;;;;;;;;32.75;23.00;22.80;45.60;;;;;;111411;1237;46685;-61
2023/04/02 11:50:29;;;;;;;;;33.75;24.75;22.80;45.60;;;;;;111377;1238;55847;-59
2023/04/02 11:53:32;;;;;;;;;29.75;21.75;22.70;45.60;;;;;;111393;1238;53842;-59
2023/04/02 11:56:08;;;;;;;;;31.50;24.25;22.70;46.00;;;;;;111116;1239;49884;-58
2023/04/02 11:58:41;;;;;;;;;23.50;19.00;22.70;45.30;;;;;;111017;1239;49700;-59
2023/04/02 12:01:28;;;;;;;;;23.00;19.00;22.70;45.20;;;;;;111314;1237;45475;-60
2023/04/02 12:04:07;;;;;;;;;26.00;21.00;22.70;45.20;;;;;;111307;1242;55213;-60
2023/04/02 12:06:46;;;;;;;;;30.00;22.75;22.70;45.60;;;;;;111258;1238;53633;-58
2023/04/02 12:09:23;;;;;;;;;31.67;23.00;22.70;45.30;;;;;;111298;1241;49795;-59
2023/04/02 12:11:52;;;;;;;;;27.00;20.75;22.70;45.10;;;;;;111331;1242;49677;-59
2023/04/02 12:14:47;;;;;;;;;30.00;23.00;22.70;45.20;;;;;;111355;1243;45353;-60
2023/04/02 12:17:35;;;;;;;;;27.00;21.00;22.60;45.20;;;;;;111247;1243;55933;-60
2023/04/02 12:20:08;;;;;;;;;30.50;24.25;22.60;45.00;;;;;;111124;1240;53661;-59
2023/04/02 12:22:39;;;;;;;;;29.00;22.00;22.60;44.90;;;;;;111258;1242;49155;-60
2023/04/02 12:25:31;;;;;;;;;21.00;19.50;22.60;44.80;;;;;;111240;1243;49699;-60
2023/04/02 12:28:10;;;;;;;;;28.75;19.00;22.60;45.00;;;;;;111309;1243;45578;-58
2023/04/02 12:30:37;;;;;;;;;25.00;18.00;22.60;44.70;;;;;;111254;1242;56424;-59
2023/04/02 12:33:23;;;;;;;;;26.25;21.25;22.60;44.60;;;;;;111324;1237;54842;-59
2023/04/02 12:35:56;;;;;;;;;29.25;22.75;22.60;45.00;;;;;;111436;1242;49177;-59
2023/04/02 12:38:48;;;;;;;;;20.50;18.50;22.60;44.80;;;;;;111162;1239;48994;-58
2023/04/02 12:41:28;;;;;;;;;26.67;20.00;22.60;44.40;;;;;;111405;1238;46732;-60
2023/04/02 12:44:00;;;;;;;;;23.25;20.00;22.50;44.60;;;;;;111391;1238;55444;-59
2023/04/02 12:46:29;;;;;;;;;24.75;17.75;22.60;44.60;;;;;;111369;1239;53341;-60
2023/04/02 12:49:38;;;;;;;;;28.50;22.00;22.50;44.50;;;;;;111278;1242;49432;-59
2023/04/02 12:52:14;;;;;;;;;25.00;22.00;22.60;44.60;;;;;;111445;1243;49704;-59
2023/04/02 12:55:02;;;;;;;;;22.75;20.00;22.50;44.50;;;;;;111309;1243;46130;-60
2023/04/02 12:57:30;;;;;;;;;27.67;21.00;22.60;44.60;;;;;;111215;1244;55653;-60
2023/04/02 13:00:26;;;;;;;;;35.25;23.00;22.60;44.80;;;;;;111375;1242;53782;-60
2023/04/02 13:02:59;;;;;;;;;27.50;21.50;22.50;44.60;;;;;;111392;1237;49907;-60